Etusivu
METAR-TAF:

METAR-TAF

Lentoasemat :

Angers, Ranska

Leveyspiiri: 47-33-37N, Pituuspiiri: 000-18-44W, korkeus merenpinnasta: 59 m

Tämänhetkinen sää

Tämä raportti tehtiin 18 minuuttia sitten, kello 14.00 UTC
Tuuli 13 kn lounaasta, vaihdellen etelän/lounaan ja lännen välillä
Lämpötila 16°C
Kosteus 59%
Ilmanpaine 1010 hPa
Näkyvyys 10 km tai enemmän
ei pilviä alle 1500 m:ssä eikä cumulonimbus-pilviä

METAR: LFJR 181400Z AUTO 23013KT 200V260 CAVOK 16/08 Q1010

Aika: 16:18 (14:18 UTC)


TAF: puuttuu

Säähavainnot ja -ennusteet yli 4000 lentoasemalta (METAR- ja TAF-raportit).

Käytössä olevat sääasemat on merkitty karttaan keltaisilla ja punaisilla pisteillä.

Aseta hiiri pisteen päälle nähdäksesi sääaseman nimen.

Klikkaa sitten nähdäksesi säähavainnot ja -ennusteet.

Kartan vaihtaminen: klikkaa mustalla rastilla varustettuja vihreitä pisteitä, niin voit zoomata sisään; viivalla varustettua vihreää pistettä, niin voit zoomata ulos tai vihreitä nuolia, niin pääset viereisille kartoille.


METAR-TAF: